createdAt,value
2022-12-27T00:00:43.158Z,2.40
2022-12-27T00:03:13.220Z,2.40
2022-12-27T00:05:45.900Z,2.37
2022-12-27T00:08:16.298Z,2.13
2022-12-27T00:10:48.855Z,2.43
2022-12-27T00:13:18.855Z,2.50
2022-12-27T00:15:48.815Z,2.87
2022-12-27T00:18:18.738Z,3.10
2022-12-27T00:20:48.694Z,2.50
2022-12-27T00:23:18.661Z,1.90
2022-12-27T00:25:51.889Z,2.43
2022-12-27T00:28:21.908Z,2.10
2022-12-27T00:30:57.217Z,2.40
2022-12-27T00:33:27.284Z,1.93
2022-12-27T00:35:57.247Z,2.27
2022-12-27T00:38:27.267Z,2.20
2022-12-27T00:40:59.973Z,2.50
2022-12-27T00:43:30.284Z,2.67
2022-12-27T00:46:00.567Z,3.33
2022-12-27T00:48:30.694Z,2.30
2022-12-27T00:51:02.540Z,2.60
2022-12-27T00:53:33.501Z,2.23
2022-12-27T00:56:09.499Z,2.37
2022-12-27T00:58:41.172Z,2.30
2022-12-27T01:01:14.017Z,2.23
2022-12-27T01:03:44.303Z,2.47
2022-12-27T01:06:16.714Z,2.57
2022-12-27T01:08:47.389Z,2.13
2022-12-27T01:11:21.360Z,1.90
2022-12-27T01:13:51.682Z,2.43
2022-12-27T01:16:24.009Z,2.50
2022-12-27T01:18:54.447Z,2.20
2022-12-27T01:21:27.331Z,2.17
2022-12-27T01:23:58.046Z,2.17
2022-12-27T01:26:30.832Z,2.20
2022-12-27T01:29:00.975Z,2.10
2022-12-27T01:31:31.322Z,2.00
2022-12-27T01:34:03.400Z,2.30
2022-12-27T01:36:34.314Z,2.37
2022-12-27T01:39:04.548Z,2.57
2022-12-27T01:41:52.466Z,2.43
2022-12-27T01:44:52.226Z,2.20
2022-12-27T01:47:29.303Z,2.13
2022-12-27T01:50:03.948Z,2.47
2022-12-27T01:52:38.137Z,2.40
2022-12-27T01:55:15.743Z,2.50
2022-12-27T01:57:49.555Z,2.73
2022-12-27T02:00:20.284Z,2.63
2022-12-27T02:02:50.890Z,1.80
2022-12-27T02:05:23.417Z,2.13
2022-12-27T02:08:02.076Z,2.27
2022-12-27T02:10:32.623Z,2.17
2022-12-27T02:13:07.275Z,2.10
2022-12-27T02:15:37.840Z,1.80
2022-12-27T02:18:08.092Z,2.47
2022-12-27T02:20:57.351Z,3.23
2022-12-27T02:23:54.259Z,3.83
2022-12-27T02:27:05.128Z,3.30
2022-12-27T02:29:50.069Z,2.00
2022-12-27T02:32:25.800Z,2.60
2022-12-27T02:35:04.737Z,2.37
2022-12-27T02:37:37.333Z,2.37
2022-12-27T02:40:32.947Z,2.57
2022-12-27T02:43:16.002Z,2.27
2022-12-27T02:46:08.003Z,3.00
2022-12-27T02:48:50.342Z,2.33
2022-12-27T02:51:47.466Z,2.20
2022-12-27T02:54:38.791Z,2.77
2022-12-27T02:57:18.712Z,2.30
2022-12-27T03:00:21.936Z,2.60
2022-12-27T03:03:18.697Z,2.40
2022-12-27T03:06:10.994Z,2.67
2022-12-27T03:08:51.464Z,2.53
2022-12-27T03:11:34.316Z,2.63
2022-12-27T03:14:31.080Z,2.50
2022-12-27T03:17:09.645Z,2.30
2022-12-27T03:20:00.941Z,2.13
2022-12-27T03:22:46.346Z,2.17
2022-12-27T03:25:33.053Z,2.70
2022-12-27T03:28:19.309Z,2.73
2022-12-27T03:31:07.176Z,2.60
2022-12-27T03:33:42.469Z,3.53
2022-12-27T03:36:31.726Z,2.30
2022-12-27T03:39:08.680Z,2.50
2022-12-27T03:41:54.918Z,2.40
2022-12-27T03:44:27.853Z,2.50
2022-12-27T03:46:57.668Z,2.20
2022-12-27T03:49:37.277Z,3.80
2022-12-27T03:52:13.953Z,2.50
2022-12-27T03:54:46.758Z,2.40
2022-12-27T03:57:19.372Z,2.27
2022-12-27T03:59:49.573Z,2.20
2022-12-27T04:02:20.045Z,2.43
2022-12-27T04:04:50.499Z,2.87
2022-12-27T04:07:23.002Z,2.60
2022-12-27T04:10:05.406Z,2.77
2022-12-27T04:12:47.765Z,2.70
2022-12-27T04:15:30.272Z,2.10
2022-12-27T04:18:12.619Z,2.00
2022-12-27T04:20:55.356Z,3.23
2022-12-27T04:23:40.470Z,2.50
2022-12-27T04:26:22.947Z,2.57
2022-12-27T04:29:05.373Z,2.97
2022-12-27T04:31:47.694Z,2.33
2022-12-27T04:34:30.609Z,2.43
2022-12-27T04:37:00.571Z,2.07
2022-12-27T04:39:33.095Z,2.60
2022-12-27T04:42:15.457Z,2.40
2022-12-27T04:45:00.040Z,2.70
2022-12-27T04:47:42.633Z,2.57
2022-12-27T04:50:31.887Z,2.83
2022-12-27T04:53:15.250Z,2.60
2022-12-27T04:55:47.810Z,3.00
2022-12-27T04:58:17.720Z,2.17
2022-12-27T05:01:00.090Z,2.70
2022-12-27T05:03:30.217Z,2.80
2022-12-27T05:06:04.251Z,2.90
2022-12-27T05:08:47.088Z,3.30
2022-12-27T05:11:32.242Z,2.33
2022-12-27T05:14:02.971Z,2.97
2022-12-27T05:16:34.294Z,5.37
2022-12-27T05:19:04.592Z,4.63
2022-12-27T05:22:21.827Z,2.70
2022-12-27T05:25:04.252Z,3.00
2022-12-27T05:27:36.898Z,3.10
2022-12-27T05:30:07.611Z,2.73
2022-12-27T05:32:37.551Z,3.27
2022-12-27T05:35:08.490Z,3.33
2022-12-27T05:37:38.403Z,3.50
2022-12-27T05:40:13.140Z,3.03
2022-12-27T05:42:45.703Z,2.90
2022-12-27T05:45:15.906Z,3.00
2022-12-27T05:47:46.187Z,3.00
2022-12-27T05:50:16.134Z,2.97
2022-12-27T05:52:47.149Z,3.07
2022-12-27T05:55:17.130Z,3.83
2022-12-27T05:57:49.625Z,2.87
2022-12-27T06:00:20.197Z,3.67
2022-12-27T06:02:50.237Z,2.90
2022-12-27T06:05:20.524Z,3.17
2022-12-27T06:07:50.887Z,3.60
2022-12-27T06:10:20.835Z,7.17
2022-12-27T06:12:53.345Z,2.83
2022-12-27T06:15:23.247Z,2.67
2022-12-27T06:17:53.161Z,2.60
2022-12-27T06:20:23.359Z,3.20
2022-12-27T06:22:53.271Z,2.30
2022-12-27T06:25:23.229Z,2.30
2022-12-27T06:27:55.739Z,2.20
2022-12-27T06:30:25.739Z,3.17
2022-12-27T06:32:55.625Z,2.73
2022-12-27T06:35:25.546Z,2.53
2022-12-27T06:37:55.398Z,2.83
2022-12-27T06:40:25.302Z,2.10
2022-12-27T06:42:57.849Z,3.30
2022-12-27T06:45:27.917Z,2.60
2022-12-27T06:48:18.304Z,2.37
2022-12-27T06:50:48.178Z,3.00
2022-12-27T06:53:18.156Z,3.30
2022-12-27T06:55:48.406Z,2.73
2022-12-27T06:58:24.193Z,2.50
2022-12-27T07:00:54.216Z,2.70
2022-12-27T07:03:24.270Z,2.40
2022-12-27T07:05:54.175Z,2.50
2022-12-27T07:08:24.100Z,2.40
2022-12-27T07:10:53.965Z,2.63
2022-12-27T07:13:26.499Z,3.00
2022-12-27T07:15:56.444Z,2.90
2022-12-27T07:18:28.985Z,3.00
2022-12-27T07:20:59.474Z,2.77
2022-12-27T07:23:29.456Z,2.47
2022-12-27T07:26:04.810Z,2.90
2022-12-27T07:28:38.737Z,2.70
2022-12-27T07:31:13.231Z,2.77
2022-12-27T07:33:43.290Z,2.70
2022-12-27T07:36:16.530Z,2.90
2022-12-27T07:38:47.284Z,2.57
2022-12-27T07:41:18.906Z,2.93
2022-12-27T07:43:51.835Z,2.57
2022-12-27T07:46:23.540Z,5.00
2022-12-27T07:48:55.396Z,3.07
2022-12-27T07:51:26.460Z,3.10
2022-12-27T07:53:56.486Z,2.60
2022-12-27T07:56:28.973Z,2.70
2022-12-27T07:59:03.766Z,3.43
2022-12-27T08:02:04.169Z,2.73
2022-12-27T08:04:37.118Z,3.10
2022-12-27T08:07:10.909Z,3.10
2022-12-27T08:09:43.461Z,2.60
2022-12-27T08:12:14.469Z,2.90
2022-12-27T08:14:47.168Z,4.13
2022-12-27T08:17:23.143Z,3.10
2022-12-27T08:19:54.942Z,4.67
2022-12-27T08:22:26.538Z,3.10
2022-12-27T08:24:56.492Z,2.60
2022-12-27T08:27:27.811Z,2.60
2022-12-27T08:30:00.344Z,3.00
2022-12-27T08:32:30.261Z,3.57
2022-12-27T08:35:18.325Z,3.10
2022-12-27T08:37:50.145Z,3.00
2022-12-27T08:40:20.280Z,3.10
2022-12-27T08:42:50.362Z,3.20
2022-12-27T08:45:22.878Z,3.10
2022-12-27T08:47:52.829Z,3.07
2022-12-27T08:50:22.793Z,3.30
2022-12-27T08:52:52.787Z,2.80
2022-12-27T08:55:22.700Z,3.20
2022-12-27T08:58:16.654Z,3.30
2022-12-27T09:00:49.304Z,3.03
2022-12-27T09:03:22.340Z,3.00
2022-12-27T09:05:52.540Z,3.30
2022-12-27T09:08:23.288Z,3.60
2022-12-27T09:10:53.159Z,3.63
2022-12-27T09:13:23.035Z,3.30
2022-12-27T09:15:55.723Z,3.43
2022-12-27T09:18:25.680Z,3.40
2022-12-27T09:20:55.576Z,4.40
2022-12-27T09:23:25.430Z,3.30
2022-12-27T09:25:55.407Z,3.30
2022-12-27T09:28:25.290Z,3.00
2022-12-27T09:30:57.971Z,3.40
2022-12-27T09:33:27.972Z,3.27
2022-12-27T09:36:04.500Z,3.50
2022-12-27T09:38:34.685Z,3.47
2022-12-27T09:41:08.365Z,3.43
2022-12-27T09:43:43.601Z,3.47
2022-12-27T09:46:22.063Z,4.57
2022-12-27T09:48:54.280Z,3.50
2022-12-27T09:51:29.330Z,3.03
2022-12-27T09:54:05.497Z,3.43
2022-12-27T09:57:09.484Z,3.63
2022-12-27T09:59:32.444Z,3.27
2022-12-27T10:02:23.351Z,3.60
2022-12-27T10:07:52.925Z,3.47
2022-12-27T10:10:33.082Z,4.47
2022-12-27T10:13:22.621Z,3.67
2022-12-27T10:16:00.898Z,4.60
2022-12-27T10:18:47.143Z,3.27
2022-12-27T10:21:22.961Z,3.97
2022-12-27T10:23:58.787Z,3.73
2022-12-27T10:26:29.517Z,4.37
2022-12-27T10:29:04.168Z,3.90
2022-12-27T10:31:34.952Z,4.10
2022-12-27T10:34:10.800Z,3.80
2022-12-27T10:36:42.876Z,4.07
2022-12-27T10:39:19.885Z,4.07
2022-12-27T10:42:00.018Z,3.80
2022-12-27T10:44:31.602Z,3.60
2022-12-27T10:47:02.656Z,3.37
2022-12-27T10:49:36.413Z,3.90
2022-12-27T10:52:12.075Z,3.60
2022-12-27T10:55:00.398Z,3.57
2022-12-27T10:57:37.370Z,3.97
2022-12-27T11:00:22.277Z,5.23
2022-12-27T11:02:53.538Z,3.77
2022-12-27T11:05:28.345Z,4.63
2022-12-27T11:07:59.232Z,4.30
2022-12-27T11:10:31.406Z,4.43
2022-12-27T11:13:03.517Z,4.57
2022-12-27T11:15:36.452Z,3.83
2022-12-27T11:18:13.499Z,3.93
2022-12-27T11:20:51.794Z,4.53
2022-12-27T11:23:23.794Z,4.13
2022-12-27T11:25:57.325Z,4.40
2022-12-27T11:28:34.722Z,4.53
2022-12-27T11:31:07.816Z,4.37
2022-12-27T11:33:50.308Z,4.27
2022-12-27T11:36:30.294Z,3.63
2022-12-27T11:39:00.673Z,4.03
2022-12-27T11:41:43.985Z,7.17
2022-12-27T11:44:20.759Z,34.53
2022-12-27T11:46:59.221Z,4.03
2022-12-27T11:49:34.089Z,3.80
2022-12-27T11:52:46.321Z,3.90
2022-12-27T11:55:41.179Z,3.97
2022-12-27T11:58:37.992Z,4.27
2022-12-27T12:01:30.222Z,4.00
2022-12-27T12:04:13.599Z,3.77
2022-12-27T12:06:54.677Z,3.97
2022-12-27T12:09:48.255Z,4.40
2022-12-27T12:12:42.364Z,4.33
2022-12-27T12:15:30.667Z,4.40
2022-12-27T12:18:14.196Z,4.67
2022-12-27T12:21:16.515Z,4.93
2022-12-27T12:24:02.776Z,4.83
2022-12-27T12:26:41.587Z,4.30
2022-12-27T12:29:34.903Z,3.97
2022-12-27T12:32:27.854Z,4.37
2022-12-27T12:35:26.257Z,4.47
2022-12-27T12:38:12.028Z,4.43
2022-12-27T12:41:05.714Z,4.77
2022-12-27T12:44:10.518Z,4.07
2022-12-27T12:46:45.241Z,4.50
2022-12-27T12:49:57.051Z,3.90
2022-12-27T12:53:00.347Z,5.00
2022-12-27T12:55:41.852Z,5.77
2022-12-27T12:58:37.742Z,4.63
2022-12-27T13:01:25.146Z,5.03
2022-12-27T13:04:31.389Z,4.33
2022-12-27T13:07:44.547Z,5.77
2022-12-27T13:10:42.171Z,12.30
2022-12-27T13:13:19.165Z,5.13
2022-12-27T13:16:13.515Z,5.23
2022-12-27T13:18:57.086Z,4.40
2022-12-27T13:21:42.368Z,3.90
2022-12-27T13:24:29.574Z,3.90
2022-12-27T13:27:09.772Z,3.90
2022-12-27T13:30:06.013Z,4.73
2022-12-27T13:32:58.312Z,4.10
2022-12-27T13:35:42.277Z,4.00
2022-12-27T13:38:29.880Z,4.37
2022-12-27T13:41:30.064Z,3.93
2022-12-27T13:44:29.790Z,3.93
2022-12-27T13:47:50.152Z,3.73
2022-12-27T13:50:52.225Z,3.30
2022-12-27T13:53:57.121Z,3.20
2022-12-27T13:56:55.144Z,3.17
2022-12-27T13:59:57.969Z,3.37
2022-12-27T14:03:04.573Z,3.10
2022-12-27T14:06:04.040Z,4.03
2022-12-27T14:09:02.150Z,3.40
2022-12-27T14:11:43.951Z,3.50
2022-12-27T14:14:19.600Z,3.20
2022-12-27T14:17:00.031Z,3.37
2022-12-27T14:19:51.570Z,3.60
2022-12-27T14:22:55.821Z,3.50
2022-12-27T14:26:07.100Z,4.40
2022-12-27T14:29:07.144Z,3.93
2022-12-27T14:32:09.255Z,3.47
2022-12-27T14:35:03.876Z,3.70
2022-12-27T14:38:18.360Z,3.57
2022-12-27T14:41:26.918Z,4.30
2022-12-27T14:44:26.815Z,4.83
2022-12-27T14:47:39.272Z,3.90
2022-12-27T14:50:44.646Z,10.20
2022-12-27T14:53:59.491Z,4.37
2022-12-27T14:56:36.636Z,5.67
2022-12-27T14:59:20.806Z,4.33
2022-12-27T15:02:02.391Z,4.20
2022-12-27T15:04:53.432Z,4.23
2022-12-27T15:07:40.355Z,4.23
2022-12-27T15:10:20.546Z,4.33
2022-12-27T15:12:58.989Z,4.33
2022-12-27T15:15:39.245Z,4.07
2022-12-27T15:18:30.568Z,4.47
2022-12-27T15:21:22.448Z,4.10
2022-12-27T15:23:56.605Z,4.20
2022-12-27T15:26:40.345Z,4.73
2022-12-27T15:29:35.888Z,22.13
2022-12-27T15:32:18.220Z,4.90
2022-12-27T15:35:01.928Z,4.77
2022-12-27T15:38:07.008Z,5.23
2022-12-27T15:41:13.621Z,5.00
2022-12-27T15:44:00.818Z,5.53
2022-12-27T15:47:01.149Z,4.73
2022-12-27T15:49:51.861Z,4.53
2022-12-27T15:52:27.777Z,4.70
2022-12-27T15:55:12.081Z,4.47
2022-12-27T15:58:11.846Z,5.10
2022-12-27T16:00:46.403Z,4.90
2022-12-27T16:03:37.287Z,5.33
2022-12-27T16:06:09.101Z,5.17
2022-12-27T16:08:41.643Z,4.73
2022-12-27T16:11:14.633Z,4.90
2022-12-27T16:13:52.160Z,4.90
2022-12-27T16:16:57.812Z,5.17
2022-12-27T16:20:08.846Z,4.70
2022-12-27T16:22:44.803Z,6.03
2022-12-27T16:25:31.032Z,5.67
2022-12-27T16:28:05.692Z,5.80
2022-12-27T16:30:46.838Z,6.10
2022-12-27T16:33:37.651Z,5.97
2022-12-27T16:36:24.980Z,6.03
2022-12-27T16:39:19.656Z,6.03
2022-12-27T16:42:13.490Z,6.57
2022-12-27T16:45:02.907Z,6.57
2022-12-27T16:48:00.724Z,6.67
2022-12-27T16:50:50.174Z,6.20
2022-12-27T16:53:39.054Z,6.03
2022-12-27T16:56:24.101Z,6.17
2022-12-27T16:58:54.671Z,6.10
2022-12-27T17:02:02.836Z,6.30
2022-12-27T17:04:59.252Z,5.77
2022-12-27T17:07:53.130Z,8.87
2022-12-27T17:10:48.303Z,6.77
2022-12-27T17:13:22.262Z,10.80
2022-12-27T17:15:57.552Z,7.83
2022-12-27T17:18:32.157Z,7.10
2022-12-27T17:21:11.404Z,6.50
2022-12-27T17:23:45.270Z,5.47
2022-12-27T17:26:49.983Z,13.23
2022-12-27T17:29:50.980Z,5.40
2022-12-27T17:32:36.618Z,6.17
2022-12-27T17:35:15.049Z,6.40
2022-12-27T17:38:03.841Z,6.87
2022-12-27T17:40:48.605Z,6.60
2022-12-27T17:43:46.436Z,7.00
2022-12-27T17:46:28.001Z,7.53
2022-12-27T17:48:58.902Z,7.93
2022-12-27T17:51:31.981Z,6.60
2022-12-27T17:54:37.025Z,5.97
2022-12-27T17:57:26.576Z,7.93
2022-12-27T17:59:59.990Z,10.57
2022-12-27T18:02:34.866Z,9.43
2022-12-27T18:05:08.304Z,7.90
2022-12-27T18:07:38.794Z,8.23
2022-12-27T18:10:24.455Z,7.17
2022-12-27T18:12:56.534Z,7.17
2022-12-27T18:15:28.335Z,8.00
2022-12-27T18:18:01.839Z,6.70
2022-12-27T18:20:52.273Z,6.90
2022-12-27T18:23:24.702Z,7.50
2022-12-27T18:26:09.254Z,7.60
2022-12-27T18:28:43.192Z,7.23
2022-12-27T18:31:18.675Z,7.53
2022-12-27T18:33:53.575Z,8.50
2022-12-27T18:36:29.213Z,8.70
2022-12-27T18:39:01.958Z,7.90
2022-12-27T18:41:40.270Z,8.50
2022-12-27T18:44:24.773Z,8.00
2022-12-27T18:46:59.861Z,8.60
2022-12-27T18:49:33.493Z,8.37
2022-12-27T18:52:05.383Z,8.33
2022-12-27T18:54:38.221Z,8.13
2022-12-27T18:57:35.244Z,8.87
2022-12-27T19:00:17.653Z,12.23
2022-12-27T19:02:48.159Z,10.20
2022-12-27T19:05:30.532Z,9.60
2022-12-27T19:08:11.541Z,23.87
2022-12-27T19:10:50.243Z,10.00
2022-12-27T19:13:29.419Z,9.07
2022-12-27T19:16:02.441Z,9.83
2022-12-27T19:18:37.360Z,9.37
2022-12-27T19:21:10.450Z,9.40
2022-12-27T19:23:43.206Z,9.33
2022-12-27T19:26:28.492Z,8.53
2022-12-27T19:29:10.034Z,9.43
2022-12-27T19:31:50.482Z,9.97
2022-12-27T19:34:23.456Z,9.60
2022-12-27T19:36:54.157Z,9.80
2022-12-27T19:39:28.019Z,9.67
2022-12-27T19:42:02.002Z,10.37
2022-12-27T19:44:37.342Z,9.90
2022-12-27T19:47:11.122Z,9.53
2022-12-27T19:49:45.183Z,9.83
2022-12-27T19:52:19.334Z,10.13
2022-12-27T19:54:54.437Z,9.30
2022-12-27T19:57:40.618Z,10.47
2022-12-27T20:00:20.509Z,10.30
2022-12-27T20:03:10.893Z,10.93
2022-12-27T20:06:12.369Z,10.07
2022-12-27T20:08:37.303Z,10.30
2022-12-27T20:11:16.219Z,10.47
2022-12-27T20:13:46.836Z,14.53
2022-12-27T20:16:25.207Z,15.83
2022-12-27T20:19:02.563Z,11.13
2022-12-27T20:21:33.392Z,11.27
2022-12-27T20:24:03.408Z,11.47
2022-12-27T20:26:33.868Z,13.20
2022-12-27T20:29:05.283Z,13.60
2022-12-27T20:31:44.487Z,11.53
2022-12-27T20:34:18.195Z,11.67
2022-12-27T20:36:55.510Z,12.83
2022-12-27T20:39:28.633Z,9.90
2022-12-27T20:42:02.398Z,9.93
2022-12-27T20:44:32.452Z,11.33
2022-12-27T20:47:07.247Z,11.57
2022-12-27T20:49:37.726Z,10.63
2022-12-27T20:52:10.346Z,11.17
2022-12-27T20:54:42.104Z,11.97
2022-12-27T20:57:12.301Z,11.73
2022-12-27T20:59:46.294Z,11.33
2022-12-27T21:02:19.799Z,12.03
2022-12-27T21:04:55.031Z,12.37
2022-12-27T21:07:25.217Z,13.90
2022-12-27T21:09:55.724Z,13.37
2022-12-27T21:12:37.137Z,12.47
2022-12-27T21:15:13.295Z,11.57
2022-12-27T21:17:51.646Z,14.00
2022-12-27T21:20:22.103Z,12.17
2022-12-27T21:22:52.312Z,12.53
2022-12-27T21:25:22.522Z,12.93
2022-12-27T21:27:52.664Z,12.87
2022-12-27T21:30:23.009Z,12.13
2022-12-27T21:32:56.996Z,11.93
2022-12-27T21:35:29.361Z,11.97
2022-12-27T21:37:59.415Z,11.37
2022-12-27T21:40:29.910Z,10.97
2022-12-27T21:42:59.897Z,10.10
2022-12-27T21:45:29.836Z,10.77
2022-12-27T21:48:02.473Z,11.03
2022-12-27T21:50:37.343Z,10.73
2022-12-27T21:53:07.814Z,10.60
2022-12-27T21:55:41.911Z,11.97
2022-12-27T21:58:12.137Z,11.33
2022-12-27T22:00:42.119Z,10.30
2022-12-27T22:03:14.975Z,11.13
2022-12-27T22:05:45.282Z,11.47
2022-12-27T22:08:15.300Z,11.50
2022-12-27T22:10:46.604Z,10.43
2022-12-27T22:13:19.325Z,9.93
2022-12-27T22:15:59.092Z,9.73
2022-12-27T22:18:43.044Z,10.07
2022-12-27T22:21:17.074Z,9.87
2022-12-27T22:23:51.459Z,10.10
2022-12-27T22:26:23.971Z,9.03
2022-12-27T22:28:54.318Z,8.83
2022-12-27T22:31:35.323Z,9.03
2022-12-27T22:34:08.934Z,9.30
2022-12-27T22:36:38.924Z,9.00
2022-12-27T22:39:09.644Z,10.37
2022-12-27T22:41:39.849Z,9.63
2022-12-27T22:44:12.666Z,8.93
2022-12-27T22:47:25.280Z,7.90
2022-12-27T22:49:36.514Z,8.97
2022-12-27T22:52:06.762Z,8.93
2022-12-27T22:55:04.063Z,8.37
2022-12-27T22:57:26.659Z,9.17
2022-12-27T22:59:56.607Z,8.00
2022-12-27T23:02:26.677Z,7.57
2022-12-27T23:04:59.256Z,7.97
2022-12-27T23:08:04.411Z,8.27
2022-12-27T23:10:20.339Z,7.97
2022-12-27T23:12:50.380Z,6.73
2022-12-27T23:15:20.462Z,7.27
2022-12-27T23:17:50.392Z,6.93
2022-12-27T23:20:23.419Z,6.53
2022-12-27T23:22:53.327Z,6.90
2022-12-27T23:25:23.240Z,18.07
2022-12-27T23:27:53.251Z,8.43
2022-12-27T23:30:23.149Z,7.20
2022-12-27T23:32:53.386Z,6.97
2022-12-27T23:35:25.941Z,7.50
2022-12-27T23:37:55.873Z,6.43
2022-12-27T23:40:25.865Z,6.73
2022-12-27T23:43:02.552Z,7.10
2022-12-27T23:45:42.499Z,6.50
2022-12-27T23:48:12.464Z,7.60
2022-12-27T23:50:45.084Z,7.33
2022-12-27T23:53:15.006Z,6.90
2022-12-27T23:55:44.902Z,6.83
2022-12-27T23:58:14.819Z,6.97
